Kansas City, Missouri
Current Conditions -  °F | °C
As of 6:54 PM on Tuesday 27 Jan 2015 (Local Time) from KMKC Reporting Station
Clear Clear  
Wind Chill: 11°   Ceiling: Unl
Heat Index: 11°   Visibility: 10mi
Dew Point: -1°   Wind: 5mph
Humidity: 46%   Direction: 110°ESE
Pressure: 30.1"   Gusts: NA
Location:  39.1°N, 94.58°W
Report Text: KMKC 280054Z 11004KT 10SM CLR 11/M01 A3010 RMK AO2 SLP196 T01061006
Loading
Personal Weather Stations






























Interactive Weather Map New forecast layout! Learn more

10-Day Weather Forecast

Advertisements
Track Severe Weather on mobile